sensor_id;sensor_type;location;lat;lon;timestamp;P1;durP1;ratioP1;P2;durP2;ratioP2
52586;SDS011;38480;52.724;6.436;2023-05-28T00:00:09;29.63;;;11.33;;
52586;SDS011;38480;52.724;6.436;2023-05-28T00:02:36;28.10;;;12.43;;
52586;SDS011;38480;52.724;6.436;2023-05-28T00:05:03;38.63;;;12.23;;
52586;SDS011;38480;52.724;6.436;2023-05-28T00:07:29;43.00;;;12.27;;
52586;SDS011;38480;52.724;6.436;2023-05-28T00:09:58;34.00;;;13.43;;
52586;SDS011;38480;52.724;6.436;2023-05-28T00:12:24;31.23;;;12.00;;
52586;SDS011;38480;52.724;6.436;2023-05-28T00:14:50;35.13;;;12.87;;
52586;SDS011;38480;52.724;6.436;2023-05-28T00:17:16;33.17;;;13.37;;
52586;SDS011;38480;52.724;6.436;2023-05-28T00:19:43;34.20;;;12.90;;
52586;SDS011;38480;52.724;6.436;2023-05-28T00:22:10;39.20;;;14.20;;
52586;SDS011;38480;52.724;6.436;2023-05-28T00:24:36;36.00;;;12.97;;
52586;SDS011;38480;52.724;6.436;2023-05-28T00:27:02;42.70;;;14.23;;
52586;SDS011;38480;52.724;6.436;2023-05-28T00:29:28;41.63;;;13.23;;
52586;SDS011;38480;52.724;6.436;2023-05-28T00:31:55;35.67;;;12.67;;
52586;SDS011;38480;52.724;6.436;2023-05-28T00:34:25;36.27;;;13.00;;
52586;SDS011;38480;52.724;6.436;2023-05-28T00:36:51;52.30;;;13.37;;
52586;SDS011;38480;52.724;6.436;2023-05-28T00:39:18;51.83;;;13.30;;
52586;SDS011;38480;52.724;6.436;2023-05-28T00:41:44;35.80;;;13.43;;
52586;SDS011;38480;52.724;6.436;2023-05-28T00:44:11;34.57;;;13.33;;
52586;SDS011;38480;52.724;6.436;2023-05-28T00:46:39;30.80;;;11.90;;
52586;SDS011;38480;52.724;6.436;2023-05-28T00:49:06;37.47;;;11.73;;
52586;SDS011;38480;52.724;6.436;2023-05-28T00:51:32;43.50;;;13.03;;
52586;SDS011;38480;52.724;6.436;2023-05-28T00:53:59;41.50;;;12.33;;
52586;SDS011;38480;52.724;6.436;2023-05-28T00:56:25;36.30;;;13.10;;
52586;SDS011;38480;52.724;6.436;2023-05-28T00:58:51;33.47;;;11.30;;
52586;SDS011;38480;52.724;6.436;2023-05-28T01:01:18;41.40;;;13.13;;
52586;SDS011;38480;52.724;6.436;2023-05-28T01:03:44;29.57;;;12.33;;
52586;SDS011;38480;52.724;6.436;2023-05-28T01:06:12;42.10;;;12.73;;
52586;SDS011;38480;52.724;6.436;2023-05-28T01:08:39;44.83;;;12.80;;
52586;SDS011;38480;52.724;6.436;2023-05-28T01:11:07;41.90;;;12.47;;
52586;SDS011;38480;52.724;6.436;2023-05-28T01:13:34;34.53;;;10.83;;
52586;SDS011;38480;52.724;6.436;2023-05-28T01:16:01;42.20;;;12.90;;
52586;SDS011;38480;52.724;6.436;2023-05-28T01:18:27;34.47;;;11.80;;
52586;SDS011;38480;52.724;6.436;2023-05-28T01:20:53;38.27;;;13.17;;
52586;SDS011;38480;52.724;6.436;2023-05-28T01:23:19;29.17;;;11.83;;
52586;SDS011;38480;52.724;6.436;2023-05-28T01:25:50;41.87;;;11.50;;
52586;SDS011;38480;52.724;6.436;2023-05-28T01:28:17;36.97;;;12.73;;
52586;SDS011;38480;52.724;6.436;2023-05-28T01:30:43;31.10;;;12.17;;
52586;SDS011;38480;52.724;6.436;2023-05-28T01:33:09;32.03;;;11.93;;
52586;SDS011;38480;52.724;6.436;2023-05-28T01:35:38;38.93;;;11.73;;
52586;SDS011;38480;52.724;6.436;2023-05-28T01:38:04;38.53;;;12.43;;
52586;SDS011;38480;52.724;6.436;2023-05-28T01:40:31;34.93;;;12.07;;
52586;SDS011;38480;52.724;6.436;2023-05-28T01:42:58;40.70;;;13.87;;
52586;SDS011;38480;52.724;6.436;2023-05-28T01:45:25;31.57;;;12.47;;
52586;SDS011;38480;52.724;6.436;2023-05-28T01:47:51;33.50;;;14.17;;
52586;SDS011;38480;52.724;6.436;2023-05-28T01:50:18;33.63;;;13.70;;
52586;SDS011;38480;52.724;6.436;2023-05-28T01:52:44;32.37;;;12.80;;
52586;SDS011;38480;52.724;6.436;2023-05-28T01:55:10;45.50;;;14.27;;
52586;SDS011;38480;52.724;6.436;2023-05-28T01:57:38;33.73;;;12.90;;
52586;SDS011;38480;52.724;6.436;2023-05-28T02:00:04;38.33;;;12.30;;
52586;SDS011;38480;52.724;6.436;2023-05-28T02:02:31;30.23;;;11.97;;
52586;SDS011;38480;52.724;6.436;2023-05-28T02:04:57;33.07;;;13.47;;
52586;SDS011;38480;52.724;6.436;2023-05-28T02:07:23;43.23;;;13.40;;
52586;SDS011;38480;52.724;6.436;2023-05-28T02:09:49;41.43;;;13.63;;
52586;SDS011;38480;52.724;6.436;2023-05-28T02:12:15;29.07;;;11.70;;
52586;SDS011;38480;52.724;6.436;2023-05-28T02:14:44;41.60;;;13.80;;
52586;SDS011;38480;52.724;6.436;2023-05-28T02:17:10;47.07;;;13.77;;
52586;SDS011;38480;52.724;6.436;2023-05-28T02:19:37;32.57;;;12.67;;
52586;SDS011;38480;52.724;6.436;2023-05-28T02:22:03;35.83;;;13.13;;
52586;SDS011;38480;52.724;6.436;2023-05-28T02:24:36;33.37;;;12.80;;
52586;SDS011;38480;52.724;6.436;2023-05-28T02:27:02;32.97;;;12.03;;
52586;SDS011;38480;52.724;6.436;2023-05-28T02:29:29;37.73;;;12.63;;
52586;SDS011;38480;52.724;6.436;2023-05-28T02:31:55;32.40;;;12.07;;
52586;SDS011;38480;52.724;6.436;2023-05-28T02:34:21;30.63;;;13.40;;
52586;SDS011;38480;52.724;6.436;2023-05-28T02:36:47;33.73;;;12.50;;
52586;SDS011;38480;52.724;6.436;2023-05-28T02:39:13;39.03;;;13.23;;
52586;SDS011;38480;52.724;6.436;2023-05-28T02:41:40;44.10;;;13.67;;
52586;SDS011;38480;52.724;6.436;2023-05-28T02:44:06;31.83;;;13.63;;
52586;SDS011;38480;52.724;6.436;2023-05-28T02:46:32;30.03;;;11.93;;
52586;SDS011;38480;52.724;6.436;2023-05-28T02:48:58;32.67;;;13.10;;
52586;SDS011;38480;52.724;6.436;2023-05-28T02:51:24;47.47;;;14.33;;
52586;SDS011;38480;52.724;6.436;2023-05-28T02:53:50;34.87;;;12.33;;
52586;SDS011;38480;52.724;6.436;2023-05-28T02:56:16;29.87;;;12.60;;
52586;SDS011;38480;52.724;6.436;2023-05-28T02:58:42;39.50;;;13.80;;
52586;SDS011;38480;52.724;6.436;2023-05-28T03:01:08;39.40;;;14.30;;
52586;SDS011;38480;52.724;6.436;2023-05-28T03:03:34;34.07;;;12.70;;
52586;SDS011;38480;52.724;6.436;2023-05-28T03:06:00;34.17;;;11.93;;
52586;SDS011;38480;52.724;6.436;2023-05-28T03:08:26;37.77;;;13.60;;
52586;SDS011;38480;52.724;6.436;2023-05-28T03:10:52;42.97;;;14.00;;
52586;SDS011;38480;52.724;6.436;2023-05-28T03:13:18;41.03;;;12.63;;
52586;SDS011;38480;52.724;6.436;2023-05-28T03:15:44;43.47;;;16.03;;
52586;SDS011;38480;52.724;6.436;2023-05-28T03:18:10;33.23;;;12.27;;
52586;SDS011;38480;52.724;6.436;2023-05-28T03:20:36;38.43;;;13.20;;
52586;SDS011;38480;52.724;6.436;2023-05-28T03:23:03;35.43;;;12.57;;
52586;SDS011;38480;52.724;6.436;2023-05-28T03:25:29;32.57;;;12.37;;
52586;SDS011;38480;52.724;6.436;2023-05-28T03:27:56;40.30;;;13.57;;
52586;SDS011;38480;52.724;6.436;2023-05-28T03:30:22;44.03;;;13.67;;
52586;SDS011;38480;52.724;6.436;2023-05-28T03:32:48;30.07;;;12.87;;
52586;SDS011;38480;52.724;6.436;2023-05-28T03:35:14;35.17;;;12.53;;
52586;SDS011;38480;52.724;6.436;2023-05-28T03:37:40;45.63;;;13.70;;
52586;SDS011;38480;52.724;6.436;2023-05-28T03:40:07;33.23;;;13.10;;
52586;SDS011;38480;52.724;6.436;2023-05-28T03:42:34;33.60;;;12.43;;
52586;SDS011;38480;52.724;6.436;2023-05-28T03:45:00;43.47;;;13.50;;
52586;SDS011;38480;52.724;6.436;2023-05-28T03:47:26;39.93;;;13.83;;
52586;SDS011;38480;52.724;6.436;2023-05-28T03:49:55;31.03;;;12.67;;
52586;SDS011;38480;52.724;6.436;2023-05-28T03:52:23;38.97;;;12.77;;
52586;SDS011;38480;52.724;6.436;2023-05-28T03:54:49;37.60;;;13.23;;
52586;SDS011;38480;52.724;6.436;2023-05-28T03:57:15;40.57;;;13.10;;
52586;SDS011;38480;52.724;6.436;2023-05-28T03:59:41;38.27;;;12.50;;
52586;SDS011;38480;52.724;6.436;2023-05-28T04:02:07;33.17;;;11.07;;
52586;SDS011;38480;52.724;6.436;2023-05-28T04:04:33;35.87;;;13.17;;
52586;SDS011;38480;52.724;6.436;2023-05-28T04:06:59;31.87;;;11.63;;
52586;SDS011;38480;52.724;6.436;2023-05-28T04:09:25;29.63;;;12.40;;
52586;SDS011;38480;52.724;6.436;2023-05-28T04:11:52;33.73;;;11.67;;
52586;SDS011;38480;52.724;6.436;2023-05-28T04:14:18;31.90;;;11.90;;
52586;SDS011;38480;52.724;6.436;2023-05-28T04:16:45;36.90;;;11.97;;
52586;SDS011;38480;52.724;6.436;2023-05-28T04:19:11;36.03;;;11.23;;
52586;SDS011;38480;52.724;6.436;2023-05-28T04:21:37;30.30;;;11.50;;
52586;SDS011;38480;52.724;6.436;2023-05-28T04:24:03;38.17;;;12.23;;
52586;SDS011;38480;52.724;6.436;2023-05-28T04:26:29;27.93;;;12.30;;
52586;SDS011;38480;52.724;6.436;2023-05-28T04:28:56;39.73;;;12.43;;
52586;SDS011;38480;52.724;6.436;2023-05-28T04:31:25;34.03;;;13.23;;
52586;SDS011;38480;52.724;6.436;2023-05-28T04:33:54;45.00;;;13.13;;
52586;SDS011;38480;52.724;6.436;2023-05-28T04:36:20;38.07;;;13.77;;
52586;SDS011;38480;52.724;6.436;2023-05-28T04:38:46;38.90;;;13.67;;
52586;SDS011;38480;52.724;6.436;2023-05-28T04:41:13;37.30;;;12.77;;
52586;SDS011;38480;52.724;6.436;2023-05-28T04:43:42;40.13;;;14.10;;
52586;SDS011;38480;52.724;6.436;2023-05-28T04:46:08;36.70;;;12.30;;
52586;SDS011;38480;52.724;6.436;2023-05-28T04:48:35;33.90;;;12.63;;
52586;SDS011;38480;52.724;6.436;2023-05-28T04:51:02;28.77;;;13.27;;
52586;SDS011;38480;52.724;6.436;2023-05-28T04:53:28;36.90;;;14.17;;
52586;SDS011;38480;52.724;6.436;2023-05-28T04:55:56;35.77;;;13.87;;
52586;SDS011;38480;52.724;6.436;2023-05-28T04:58:22;37.17;;;14.10;;
52586;SDS011;38480;52.724;6.436;2023-05-28T05:00:48;33.53;;;13.37;;
52586;SDS011;38480;52.724;6.436;2023-05-28T05:03:14;40.47;;;14.10;;
52586;SDS011;38480;52.724;6.436;2023-05-28T05:05:40;37.87;;;13.57;;
52586;SDS011;38480;52.724;6.436;2023-05-28T05:08:06;39.80;;;14.37;;
52586;SDS011;38480;52.724;6.436;2023-05-28T05:10:34;44.87;;;14.10;;
52586;SDS011;38480;52.724;6.436;2023-05-28T05:13:00;38.80;;;13.87;;
52586;SDS011;38480;52.724;6.436;2023-05-28T05:15:26;40.40;;;13.53;;
52586;SDS011;38480;52.724;6.436;2023-05-28T05:17:52;43.20;;;13.70;;
52586;SDS011;38480;52.724;6.436;2023-05-28T05:20:18;32.33;;;13.50;;
52586;SDS011;38480;52.724;6.436;2023-05-28T05:22:44;30.97;;;13.20;;
52586;SDS011;38480;52.724;6.436;2023-05-28T05:25:10;38.63;;;13.00;;
52586;SDS011;38480;52.724;6.436;2023-05-28T05:27:36;34.27;;;13.90;;
52586;SDS011;38480;52.724;6.436;2023-05-28T05:30:03;38.03;;;14.60;;
52586;SDS011;38480;52.724;6.436;2023-05-28T05:32:30;35.83;;;13.30;;
52586;SDS011;38480;52.724;6.436;2023-05-28T05:34:56;30.97;;;13.27;;
52586;SDS011;38480;52.724;6.436;2023-05-28T05:37:22;33.17;;;13.73;;
52586;SDS011;38480;52.724;6.436;2023-05-28T05:39:48;34.40;;;13.37;;
52586;SDS011;38480;52.724;6.436;2023-05-28T05:42:14;33.97;;;12.73;;
52586;SDS011;38480;52.724;6.436;2023-05-28T05:44:40;35.53;;;12.47;;
52586;SDS011;38480;52.724;6.436;2023-05-28T05:47:06;34.27;;;11.63;;
52586;SDS011;38480;52.724;6.436;2023-05-28T05:49:32;32.57;;;11.90;;
52586;SDS011;38480;52.724;6.436;2023-05-28T05:51:58;37.57;;;13.43;;
52586;SDS011;38480;52.724;6.436;2023-05-28T05:54:24;36.67;;;11.90;;
52586;SDS011;38480;52.724;6.436;2023-05-28T05:56:51;29.73;;;10.67;;
52586;SDS011;38480;52.724;6.436;2023-05-28T05:59:17;28.03;;;11.40;;
52586;SDS011;38480;52.724;6.436;2023-05-28T06:01:43;27.20;;;10.37;;
52586;SDS011;38480;52.724;6.436;2023-05-28T06:04:10;27.63;;;10.40;;
52586;SDS011;38480;52.724;6.436;2023-05-28T06:06:36;23.80;;;10.00;;
52586;SDS011;38480;52.724;6.436;2023-05-28T06:09:03;25.07;;;9.80;;
52586;SDS011;38480;52.724;6.436;2023-05-28T06:11:29;26.23;;;10.00;;
52586;SDS011;38480;52.724;6.436;2023-05-28T06:13:55;22.03;;;9.50;;
52586;SDS011;38480;52.724;6.436;2023-05-28T06:16:22;22.77;;;9.07;;
52586;SDS011;38480;52.724;6.436;2023-05-28T06:18:48;24.30;;;11.33;;
52586;SDS011;38480;52.724;6.436;2023-05-28T06:21:14;21.83;;;9.63;;
52586;SDS011;38480;52.724;6.436;2023-05-28T06:23:40;29.37;;;10.20;;
52586;SDS011;38480;52.724;6.436;2023-05-28T06:26:06;21.77;;;8.23;;
52586;SDS011;38480;52.724;6.436;2023-05-28T06:28:32;20.73;;;7.97;;
52586;SDS011;38480;52.724;6.436;2023-05-28T06:30:59;19.00;;;7.93;;
52586;SDS011;38480;52.724;6.436;2023-05-28T06:33:25;15.73;;;7.93;;
52586;SDS011;38480;52.724;6.436;2023-05-28T06:35:51;19.40;;;7.03;;
52586;SDS011;38480;52.724;6.436;2023-05-28T06:38:17;18.57;;;6.90;;
52586;SDS011;38480;52.724;6.436;2023-05-28T06:40:43;16.20;;;6.80;;
52586;SDS011;38480;52.724;6.436;2023-05-28T06:43:09;19.37;;;6.97;;
52586;SDS011;38480;52.724;6.436;2023-05-28T06:45:36;19.23;;;5.97;;
52586;SDS011;38480;52.724;6.436;2023-05-28T06:48:02;18.33;;;6.40;;
52586;SDS011;38480;52.724;6.436;2023-05-28T06:50:28;19.43;;;6.33;;
52586;SDS011;38480;52.724;6.436;2023-05-28T06:52:54;15.60;;;5.83;;
52586;SDS011;38480;52.724;6.436;2023-05-28T06:55:21;16.73;;;6.33;;
52586;SDS011;38480;52.724;6.436;2023-05-28T06:57:47;19.53;;;7.37;;
52586;SDS011;38480;52.724;6.436;2023-05-28T07:00:13;18.73;;;5.57;;
52586;SDS011;38480;52.724;6.436;2023-05-28T07:02:42;15.27;;;5.10;;
52586;SDS011;38480;52.724;6.436;2023-05-28T07:05:08;22.17;;;6.47;;
52586;SDS011;38480;52.724;6.436;2023-05-28T07:07:34;14.10;;;5.27;;
52586;SDS011;38480;52.724;6.436;2023-05-28T07:10:02;14.23;;;5.50;;
52586;SDS011;38480;52.724;6.436;2023-05-28T07:12:28;16.57;;;5.63;;
52586;SDS011;38480;52.724;6.436;2023-05-28T07:14:54;17.20;;;5.63;;
52586;SDS011;38480;52.724;6.436;2023-05-28T07:17:20;17.07;;;6.17;;
52586;SDS011;38480;52.724;6.436;2023-05-28T07:19:47;15.80;;;6.40;;
52586;SDS011;38480;52.724;6.436;2023-05-28T07:22:13;17.43;;;5.87;;
52586;SDS011;38480;52.724;6.436;2023-05-28T07:24:39;12.40;;;5.40;;
52586;SDS011;38480;52.724;6.436;2023-05-28T07:27:05;19.30;;;6.70;;
52586;SDS011;38480;52.724;6.436;2023-05-28T07:29:32;14.37;;;5.90;;
52586;SDS011;38480;52.724;6.436;2023-05-28T07:31:58;16.90;;;5.67;;
52586;SDS011;38480;52.724;6.436;2023-05-28T07:34:24;15.47;;;5.80;;
52586;SDS011;38480;52.724;6.436;2023-05-28T07:36:50;17.57;;;6.20;;
52586;SDS011;38480;52.724;6.436;2023-05-28T07:39:16;19.50;;;5.50;;
52586;SDS011;38480;52.724;6.436;2023-05-28T07:41:42;12.07;;;5.07;;
52586;SDS011;38480;52.724;6.436;2023-05-28T07:44:08;15.23;;;5.53;;
52586;SDS011;38480;52.724;6.436;2023-05-28T07:46:36;11.20;;;4.70;;
52586;SDS011;38480;52.724;6.436;2023-05-28T07:49:02;11.43;;;5.50;;
52586;SDS011;38480;52.724;6.436;2023-05-28T07:51:28;16.13;;;5.37;;
52586;SDS011;38480;52.724;6.436;2023-05-28T07:53:54;18.20;;;5.60;;
52586;SDS011;38480;52.724;6.436;2023-05-28T07:56:20;16.63;;;5.57;;
52586;SDS011;38480;52.724;6.436;2023-05-28T07:58:47;13.07;;;5.07;;
52586;SDS011;38480;52.724;6.436;2023-05-28T08:01:13;19.87;;;5.43;;
52586;SDS011;38480;52.724;6.436;2023-05-28T08:03:39;12.17;;;4.83;;
52586;SDS011;38480;52.724;6.436;2023-05-28T08:06:05;10.93;;;4.90;;
52586;SDS011;38480;52.724;6.436;2023-05-28T08:08:33;13.90;;;5.07;;
52586;SDS011;38480;52.724;6.436;2023-05-28T08:11:00;11.80;;;4.27;;
52586;SDS011;38480;52.724;6.436;2023-05-28T08:13:26;12.20;;;5.07;;
52586;SDS011;38480;52.724;6.436;2023-05-28T08:15:52;11.03;;;5.30;;
52586;SDS011;38480;52.724;6.436;2023-05-28T08:18:18;12.67;;;5.37;;
52586;SDS011;38480;52.724;6.436;2023-05-28T08:20:44;10.90;;;4.63;;
52586;SDS011;38480;52.724;6.436;2023-05-28T08:23:10;13.63;;;4.87;;
52586;SDS011;38480;52.724;6.436;2023-05-28T08:25:36;14.43;;;5.63;;
52586;SDS011;38480;52.724;6.436;2023-05-28T08:28:02;13.50;;;5.40;;
52586;SDS011;38480;52.724;6.436;2023-05-28T08:30:29;13.63;;;5.33;;
52586;SDS011;38480;52.724;6.436;2023-05-28T08:32:56;11.50;;;4.70;;
52586;SDS011;38480;52.724;6.436;2023-05-28T08:35:22;12.03;;;5.07;;
52586;SDS011;38480;52.724;6.436;2023-05-28T08:37:50;15.40;;;6.40;;
52586;SDS011;38480;52.724;6.436;2023-05-28T08:40:16;13.10;;;5.60;;
52586;SDS011;38480;52.724;6.436;2023-05-28T08:42:42;19.17;;;6.03;;
52586;SDS011;38480;52.724;6.436;2023-05-28T08:45:09;14.93;;;5.30;;
52586;SDS011;38480;52.724;6.436;2023-05-28T08:47:36;12.23;;;4.87;;
52586;SDS011;38480;52.724;6.436;2023-05-28T08:50:03;9.73;;;4.87;;
52586;SDS011;38480;52.724;6.436;2023-05-28T08:52:33;13.03;;;5.70;;
52586;SDS011;38480;52.724;6.436;2023-05-28T08:55:00;15.03;;;5.47;;
52586;SDS011;38480;52.724;6.436;2023-05-28T08:57:28;11.17;;;5.73;;
52586;SDS011;38480;52.724;6.436;2023-05-28T08:59:54;12.43;;;5.97;;
52586;SDS011;38480;52.724;6.436;2023-05-28T09:02:24;13.83;;;5.60;;
52586;SDS011;38480;52.724;6.436;2023-05-28T09:04:50;13.80;;;6.57;;
52586;SDS011;38480;52.724;6.436;2023-05-28T09:07:16;12.60;;;5.53;;
52586;SDS011;38480;52.724;6.436;2023-05-28T09:09:43;12.70;;;5.70;;
52586;SDS011;38480;52.724;6.436;2023-05-28T09:12:09;9.75;;;5.75;;
52586;SDS011;38480;52.724;6.436;2023-05-28T09:14:40;12.80;;;5.95;;
52586;SDS011;38480;52.724;6.436;2023-05-28T09:17:06;11.98;;;5.32;;
52586;SDS011;38480;52.724;6.436;2023-05-28T09:19:38;13.52;;;5.38;;
52586;SDS011;38480;52.724;6.436;2023-05-28T09:22:05;12.85;;;6.43;;
52586;SDS011;38480;52.724;6.436;2023-05-28T09:24:31;12.50;;;6.32;;
52586;SDS011;38480;52.724;6.436;2023-05-28T09:26:57;10.95;;;5.82;;
52586;SDS011;38480;52.724;6.436;2023-05-28T09:29:24;11.40;;;6.18;;
52586;SDS011;38480;52.724;6.436;2023-05-28T09:32:00;12.05;;;5.85;;
52586;SDS011;38480;52.724;6.436;2023-05-28T09:34:30;11.15;;;5.72;;
52586;SDS011;38480;52.724;6.436;2023-05-28T09:37:00;12.63;;;6.53;;
52586;SDS011;38480;52.724;6.436;2023-05-28T09:39:26;10.93;;;5.55;;
52586;SDS011;38480;52.724;6.436;2023-05-28T09:42:02;11.68;;;5.90;;
52586;SDS011;38480;52.724;6.436;2023-05-28T09:44:32;11.80;;;5.68;;
52586;SDS011;38480;52.724;6.436;2023-05-28T09:46:58;11.23;;;5.30;;
52586;SDS011;38480;52.724;6.436;2023-05-28T09:49:27;13.23;;;6.00;;
52586;SDS011;38480;52.724;6.436;2023-05-28T09:51:56;12.07;;;5.82;;
52586;SDS011;38480;52.724;6.436;2023-05-28T09:54:24;15.27;;;5.97;;
52586;SDS011;38480;52.724;6.436;2023-05-28T09:56:51;12.63;;;5.68;;
52586;SDS011;38480;52.724;6.436;2023-05-28T09:59:18;12.25;;;5.20;;
52586;SDS011;38480;52.724;6.436;2023-05-28T10:01:48;13.13;;;5.40;;
52586;SDS011;38480;52.724;6.436;2023-05-28T10:04:17;11.52;;;5.05;;
52586;SDS011;38480;52.724;6.436;2023-05-28T10:06:43;13.25;;;5.80;;
52586;SDS011;38480;52.724;6.436;2023-05-28T10:09:11;11.95;;;4.93;;
52586;SDS011;38480;52.724;6.436;2023-05-28T10:11:41;14.85;;;4.75;;
52586;SDS011;38480;52.724;6.436;2023-05-28T10:14:09;12.68;;;5.55;;
52586;SDS011;38480;52.724;6.436;2023-05-28T10:16:35;9.90;;;4.75;;
52586;SDS011;38480;52.724;6.436;2023-05-28T10:19:02;10.55;;;5.60;;
52586;SDS011;38480;52.724;6.436;2023-05-28T10:21:28;10.77;;;5.40;;
52586;SDS011;38480;52.724;6.436;2023-05-28T10:23:54;8.13;;;4.60;;
52586;SDS011;38480;52.724;6.436;2023-05-28T10:26:21;9.95;;;4.78;;
52586;SDS011;38480;52.724;6.436;2023-05-28T10:28:54;11.25;;;4.72;;
52586;SDS011;38480;52.724;6.436;2023-05-28T10:31:23;13.57;;;4.95;;
52586;SDS011;38480;52.724;6.436;2023-05-28T10:33:49;13.82;;;5.00;;
52586;SDS011;38480;52.724;6.436;2023-05-28T10:36:16;8.13;;;5.10;;
52586;SDS011;38480;52.724;6.436;2023-05-28T10:38:50;10.23;;;4.78;;
52586;SDS011;38480;52.724;6.436;2023-05-28T10:41:22;8.63;;;4.55;;
52586;SDS011;38480;52.724;6.436;2023-05-28T10:43:52;10.38;;;4.88;;
52586;SDS011;38480;52.724;6.436;2023-05-28T10:51:57;10.48;;;5.07;;
52586;SDS011;38480;52.724;6.436;2023-05-28T10:59:37;8.70;;;4.55;;
52586;SDS011;38480;52.724;6.436;2023-05-28T11:02:06;8.27;;;4.30;;
52586;SDS011;38480;52.724;6.436;2023-05-28T11:04:36;8.68;;;4.85;;
52586;SDS011;38480;52.724;6.436;2023-05-28T11:07:02;9.50;;;5.03;;
52586;SDS011;38480;52.724;6.436;2023-05-28T11:09:28;12.02;;;5.00;;
52586;SDS011;38480;52.724;6.436;2023-05-28T11:11:58;11.50;;;5.22;;
52586;SDS011;38480;52.724;6.436;2023-05-28T11:14:28;13.18;;;5.22;;
52586;SDS011;38480;52.724;6.436;2023-05-28T11:16:55;12.48;;;5.45;;
52586;SDS011;38480;52.724;6.436;2023-05-28T11:19:21;10.38;;;4.72;;
52586;SDS011;38480;52.724;6.436;2023-05-28T11:21:53;10.60;;;5.38;;
52586;SDS011;38480;52.724;6.436;2023-05-28T11:24:21;12.00;;;4.90;;
52586;SDS011;38480;52.724;6.436;2023-05-28T11:26:47;8.30;;;4.75;;
52586;SDS011;38480;52.724;6.436;2023-05-28T11:29:13;8.68;;;4.72;;
52586;SDS011;38480;52.724;6.436;2023-05-28T11:31:41;7.78;;;4.88;;
52586;SDS011;38480;52.724;6.436;2023-05-28T11:34:07;7.20;;;4.32;;
52586;SDS011;38480;52.724;6.436;2023-05-28T11:36:38;8.15;;;4.45;;
52586;SDS011;38480;52.724;6.436;2023-05-28T11:39:04;9.77;;;5.88;;
52586;SDS011;38480;52.724;6.436;2023-05-28T11:41:31;8.07;;;4.97;;
52586;SDS011;38480;52.724;6.436;2023-05-28T11:43:57;9.30;;;5.45;;
52586;SDS011;38480;52.724;6.436;2023-05-28T11:46:23;7.95;;;4.47;;
52586;SDS011;38480;52.724;6.436;2023-05-28T11:48:50;8.45;;;5.22;;
52586;SDS011;38480;52.724;6.436;2023-05-28T11:51:17;6.55;;;4.30;;
52586;SDS011;38480;52.724;6.436;2023-05-28T11:53:45;6.93;;;4.30;;
52586;SDS011;38480;52.724;6.436;2023-05-28T11:56:11;7.10;;;3.72;;
52586;SDS011;38480;52.724;6.436;2023-05-28T11:58:37;7.63;;;3.92;;
52586;SDS011;38480;52.724;6.436;2023-05-28T12:01:12;7.22;;;5.22;;
52586;SDS011;38480;52.724;6.436;2023-05-28T12:03:38;6.88;;;4.57;;
52586;SDS011;38480;52.724;6.436;2023-05-28T12:06:07;7.78;;;4.50;;
52586;SDS011;38480;52.724;6.436;2023-05-28T12:08:33;7.43;;;4.40;;
52586;SDS011;38480;52.724;6.436;2023-05-28T12:11:02;10.32;;;4.70;;
52586;SDS011;38480;52.724;6.436;2023-05-28T12:13:34;6.93;;;4.20;;
52586;SDS011;38480;52.724;6.436;2023-05-28T12:16:10;6.68;;;4.10;;
52586;SDS011;38480;52.724;6.436;2023-05-28T12:18:43;8.40;;;5.10;;
52586;SDS011;38480;52.724;6.436;2023-05-28T12:21:13;6.80;;;4.47;;
52586;SDS011;38480;52.724;6.436;2023-05-28T12:23:45;5.68;;;4.28;;
52586;SDS011;38480;52.724;6.436;2023-05-28T12:26:11;7.45;;;4.53;;
52586;SDS011;38480;52.724;6.436;2023-05-28T12:28:37;4.95;;;4.32;;
52586;SDS011;38480;52.724;6.436;2023-05-28T12:31:05;6.53;;;5.05;;
52586;SDS011;38480;52.724;6.436;2023-05-28T12:33:32;6.90;;;4.95;;
52586;SDS011;38480;52.724;6.436;2023-05-28T12:35:58;6.88;;;4.68;;
52586;SDS011;38480;52.724;6.436;2023-05-28T12:38:27;6.63;;;4.97;;
52586;SDS011;38480;52.724;6.436;2023-05-28T12:40:53;6.63;;;4.10;;
52586;SDS011;38480;52.724;6.436;2023-05-28T12:43:20;5.82;;;4.90;;
52586;SDS011;38480;52.724;6.436;2023-05-28T12:45:46;7.10;;;4.10;;
52586;SDS011;38480;52.724;6.436;2023-05-28T12:48:12;5.85;;;4.07;;
52586;SDS011;38480;52.724;6.436;2023-05-28T12:50:38;6.78;;;4.15;;
52586;SDS011;38480;52.724;6.436;2023-05-28T12:53:04;6.60;;;4.55;;
52586;SDS011;38480;52.724;6.436;2023-05-28T12:55:31;5.30;;;3.95;;
52586;SDS011;38480;52.724;6.436;2023-05-28T12:57:57;5.20;;;4.18;;
52586;SDS011;38480;52.724;6.436;2023-05-28T13:00:23;6.82;;;4.70;;
52586;SDS011;38480;52.724;6.436;2023-05-28T13:02:50;6.72;;;4.13;;
52586;SDS011;38480;52.724;6.436;2023-05-28T13:05:16;5.75;;;4.07;;
52586;SDS011;38480;52.724;6.436;2023-05-28T13:07:42;6.82;;;4.07;;
52586;SDS011;38480;52.724;6.436;2023-05-28T13:10:09;6.38;;;4.57;;
52586;SDS011;38480;52.724;6.436;2023-05-28T13:12:36;5.60;;;4.28;;
52586;SDS011;38480;52.724;6.436;2023-05-28T13:15:05;7.65;;;4.65;;
52586;SDS011;38480;52.724;6.436;2023-05-28T13:17:32;8.38;;;4.88;;
52586;SDS011;38480;52.724;6.436;2023-05-28T13:19:58;4.32;;;3.83;;
52586;SDS011;38480;52.724;6.436;2023-05-28T13:22:25;5.53;;;4.45;;
52586;SDS011;38480;52.724;6.436;2023-05-28T13:24:51;7.45;;;4.20;;
52586;SDS011;38480;52.724;6.436;2023-05-28T13:27:17;5.07;;;3.83;;
52586;SDS011;38480;52.724;6.436;2023-05-28T13:29:43;5.68;;;4.65;;
52586;SDS011;38480;52.724;6.436;2023-05-28T13:32:09;5.63;;;3.50;;
52586;SDS011;38480;52.724;6.436;2023-05-28T13:34:35;6.13;;;3.35;;
52586;SDS011;38480;52.724;6.436;2023-05-28T13:37:04;6.65;;;3.50;;
52586;SDS011;38480;52.724;6.436;2023-05-28T13:39:30;5.65;;;3.53;;
52586;SDS011;38480;52.724;6.436;2023-05-28T13:41:57;6.50;;;4.32;;
52586;SDS011;38480;52.724;6.436;2023-05-28T13:44:23;7.95;;;3.90;;
52586;SDS011;38480;52.724;6.436;2023-05-28T13:46:49;6.05;;;4.20;;
52586;SDS011;38480;52.724;6.436;2023-05-28T13:49:15;6.78;;;3.53;;
52586;SDS011;38480;52.724;6.436;2023-05-28T13:51:41;5.32;;;3.15;;
52586;SDS011;38480;52.724;6.436;2023-05-28T13:54:08;8.38;;;3.42;;
52586;SDS011;38480;52.724;6.436;2023-05-28T13:56:35;5.10;;;3.08;;
52586;SDS011;38480;52.724;6.436;2023-05-28T13:59:01;6.80;;;3.03;;
52586;SDS011;38480;52.724;6.436;2023-05-28T14:01:27;7.40;;;3.67;;
52586;SDS011;38480;52.724;6.436;2023-05-28T14:03:53;7.18;;;2.75;;
52586;SDS011;38480;52.724;6.436;2023-05-28T14:06:19;8.07;;;4.00;;
52586;SDS011;38480;52.724;6.436;2023-05-28T14:08:45;5.60;;;3.10;;
52586;SDS011;38480;52.724;6.436;2023-05-28T14:11:11;8.82;;;3.40;;
52586;SDS011;38480;52.724;6.436;2023-05-28T14:13:38;6.13;;;3.03;;
52586;SDS011;38480;52.724;6.436;2023-05-28T14:16:04;5.40;;;2.85;;
52586;SDS011;38480;52.724;6.436;2023-05-28T14:18:30;6.72;;;3.72;;
52586;SDS011;38480;52.724;6.436;2023-05-28T14:20:56;5.47;;;2.88;;
52586;SDS011;38480;52.724;6.436;2023-05-28T14:23:22;7.05;;;2.92;;
52586;SDS011;38480;52.724;6.436;2023-05-28T14:25:48;7.40;;;2.80;;
52586;SDS011;38480;52.724;6.436;2023-05-28T14:28:14;7.90;;;3.33;;
52586;SDS011;38480;52.724;6.436;2023-05-28T14:30:40;5.65;;;2.90;;
52586;SDS011;38480;52.724;6.436;2023-05-28T14:33:07;7.78;;;3.20;;
52586;SDS011;38480;52.724;6.436;2023-05-28T14:35:33;9.20;;;3.20;;
52586;SDS011;38480;52.724;6.436;2023-05-28T14:37:59;8.80;;;3.40;;
52586;SDS011;38480;52.724;6.436;2023-05-28T14:40:25;5.05;;;2.55;;